Time;durP1;ratioP1;P1;durP2;ratioP2;P2;SDS_P1;SDS_P2;PMS_P1;PMS_P2;Temp;Humidity;BMP_temperature;BMP_pressure;BME280_temperature;BME280_humidity;BME280_pressure;Samples;Min_cycle;Max_cycle;Signal;HPM_P1;HPM_P2
2022/11/17 00:00:50;;;;;;;14.87;8.47;;;;;;;;;;5275149;28;20290;-82
2022/11/17 00:03:21;;;;;;;11.47;8.20;;;;;;;;;;5274792;28;20370;-82
2022/11/17 00:05:52;;;;;;;15.37;8.63;;;;;;;;;;5278806;28;20276;-81
2022/11/17 00:08:23;;;;;;;11.47;8.63;;;;;;;;;;5262093;28;20271;-82
2022/11/17 00:10:58;;;;;;;14.73;8.23;;;;;;;;;;5277595;28;20028;-82
2022/11/17 00:16:20;;;;;;;14.43;8.98;;;;;;;;;;5277602;28;20112;-81
2022/11/17 00:21:40;;;;;;;16.33;9.13;;;;;;;;;;5276942;28;20029;-81
2022/11/17 00:24:14;;;;;;;14.63;8.90;;;;;;;;;;5276536;28;20044;-81
2022/11/17 00:27:01;;;;;;;17.77;8.15;;;;;;;;;;5275061;28;20341;-82
2022/11/17 00:29:32;;;;;;;18.27;10.43;;;;;;;;;;5278740;28;20474;-82
2022/11/17 00:34:53;;;;;;;15.27;9.15;;;;;;;;;;5275125;28;20449;-82
2022/11/17 00:37:25;;;;;;;17.43;8.17;;;;;;;;;;5275681;28;20086;-82
2022/11/17 00:39:56;;;;;;;16.63;8.77;;;;;;;;;;5278467;28;20302;-82
2022/11/17 00:42:27;;;;;;;12.43;9.10;;;;;;;;;;5275103;28;20033;-82
2022/11/17 00:44:59;;;;;;;15.73;8.80;;;;;;;;;;5261818;28;20409;-82
2022/11/17 00:47:34;;;;;;;12.50;9.10;;;;;;;;;;5260914;28;20315;-82
2022/11/17 00:50:05;;;;;;;14.38;8.27;;;;;;;;;;5274220;28;20029;-82
2022/11/17 00:52:36;;;;;;;17.70;9.32;;;;;;;;;;5277230;28;20036;-82
2022/11/17 00:55:08;;;;;;;14.20;8.77;;;;;;;;;;5260517;28;20037;-82
2022/11/17 00:57:39;;;;;;;14.15;8.50;;;;;;;;;;5278201;28;20744;-82
2022/11/17 01:00:10;;;;;;;9.97;8.17;;;;;;;;;;5278159;28;20385;-82
2022/11/17 01:02:41;;;;;;;10.68;8.52;;;;;;;;;;5282280;28;20291;-82
2022/11/17 01:05:13;;;;;;;10.70;8.23;;;;;;;;;;5278274;28;20026;-82
2022/11/17 01:07:45;;;;;;;13.30;8.57;;;;;;;;;;5267384;28;20821;-82
2022/11/17 01:10:16;;;;;;;10.82;8.25;;;;;;;;;;5269212;28;20322;-82
2022/11/17 01:12:48;;;;;;;13.20;8.60;;;;;;;;;;5282180;28;20037;-81
2022/11/17 01:15:19;;;;;;;9.83;8.33;;;;;;;;;;5281222;28;20021;-81
2022/11/17 01:17:50;;;;;;;13.77;8.83;;;;;;;;;;5282746;28;20033;-81
2022/11/17 01:20:21;;;;;;;11.33;6.70;;;;;;;;;;5279795;28;20337;-82
2022/11/17 01:22:53;;;;;;;9.13;6.15;;;;;;;;;;5264427;28;20379;-82
2022/11/17 01:25:24;;;;;;;8.50;4.53;;;;;;;;;;5278244;28;20060;-82
2022/11/17 01:27:55;;;;;;;7.17;5.17;;;;;;;;;;5280997;28;20041;-81
2022/11/17 01:30:26;;;;;;;7.70;5.33;;;;;;;;;;5268993;28;20650;-82
2022/11/17 01:32:57;;;;;;;8.87;5.83;;;;;;;;;;5278214;28;20279;-81
2022/11/17 01:35:29;;;;;;;6.10;5.37;;;;;;;;;;5277320;28;20346;-82
2022/11/17 01:38:00;;;;;;;8.30;4.80;;;;;;;;;;5281058;28;20276;-82
2022/11/17 01:40:31;;;;;;;9.75;5.50;;;;;;;;;;5279424;28;20279;-82
2022/11/17 01:43:04;;;;;;;10.02;5.40;;;;;;;;;;5279900;28;20480;-82
2022/11/17 01:45:35;;;;;;;6.65;4.28;;;;;;;;;;5281012;28;20040;-82
2022/11/17 01:48:07;;;;;;;7.45;4.45;;;;;;;;;;5279615;28;20517;-82
2022/11/17 01:50:39;;;;;;;7.53;4.75;;;;;;;;;;5280222;28;20390;-82
2022/11/17 01:53:13;;;;;;;6.85;4.45;;;;;;;;;;5280477;28;20032;-82
2022/11/17 01:55:49;;;;;;;6.05;5.38;;;;;;;;;;5277562;28;20476;-82
2022/11/17 01:58:24;;;;;;;8.70;5.95;;;;;;;;;;5281002;28;20033;-82
2022/11/17 02:00:55;;;;;;;8.52;5.82;;;;;;;;;;5276807;28;20964;-81
2022/11/17 02:03:27;;;;;;;7.53;6.55;;;;;;;;;;5279345;28;20028;-82
2022/11/17 02:06:10;;;;;;;10.13;6.55;;;;;;;;;;5278996;28;20029;-82
2022/11/17 02:08:43;;;;;;;6.35;5.57;;;;;;;;;;5278560;28;20112;-82
2022/11/17 02:11:16;;;;;;;7.47;5.57;;;;;;;;;;5277873;28;20031;-82
2022/11/17 02:13:47;;;;;;;7.03;4.63;;;;;;;;;;5279302;28;20037;-82
2022/11/17 02:16:19;;;;;;;9.23;4.78;;;;;;;;;;5278508;28;20167;-81
2022/11/17 02:18:50;;;;;;;7.97;4.97;;;;;;;;;;5266258;28;20033;-83
2022/11/17 02:21:31;;;;;;;7.73;4.63;;;;;;;;;;5275681;28;20057;-83
2022/11/17 02:24:02;;;;;;;6.90;4.05;;;;;;;;;;5279132;28;20350;-82
2022/11/17 02:26:43;;;;;;;7.97;3.10;;;;;;;;;;5280586;28;20108;-83
2022/11/17 02:29:27;;;;;;;5.43;3.38;;;;;;;;;;5277060;28;20406;-83
2022/11/17 02:32:03;;;;;;;4.00;3.10;;;;;;;;;;5282685;28;20056;-82
2022/11/17 02:34:34;;;;;;;4.97;2.40;;;;;;;;;;5286082;28;20035;-83
2022/11/17 02:37:29;;;;;;;4.27;1.83;;;;;;;;;;5284797;28;20104;-81
2022/11/17 02:40:05;;;;;;;4.25;1.70;;;;;;;;;;5284788;28;20283;-82
2022/11/17 02:45:38;;;;;;;4.80;1.90;;;;;;;;;;5279417;28;20053;-83
2022/11/17 02:48:12;;;;;;;1.98;1.80;;;;;;;;;;5282328;28;20175;-83
2022/11/17 02:50:44;;;;;;;4.40;1.90;;;;;;;;;;5281508;28;20111;-83
2022/11/17 02:53:17;;;;;;;3.60;1.90;;;;;;;;;;5282974;28;20036;-83
2022/11/17 02:55:49;;;;;;;4.25;1.88;;;;;;;;;;5268800;28;20013;-83
2022/11/17 02:58:20;;;;;;;5.80;2.08;;;;;;;;;;5283112;28;20542;-82
2022/11/17 03:00:58;;;;;;;2.60;1.60;;;;;;;;;;5280289;28;20112;-83
2022/11/17 03:03:41;;;;;;;2.22;1.55;;;;;;;;;;5284252;28;20353;-83
2022/11/17 03:06:38;;;;;;;3.22;1.70;;;;;;;;;;5284293;28;20075;-83
2022/11/17 03:09:19;;;;;;;3.55;1.63;;;;;;;;;;5244316;28;20106;-83
2022/11/17 03:12:19;;;;;;;2.33;1.25;;;;;;;;;;5283422;28;20033;-83
2022/11/17 03:14:57;;;;;;;2.03;1.33;;;;;;;;;;5262739;28;20044;-83
2022/11/17 03:17:34;;;;;;;2.08;1.35;;;;;;;;;;5265545;28;20033;-83
2022/11/17 03:20:05;;;;;;;2.38;1.23;;;;;;;;;;5280435;28;20057;-83
2022/11/17 03:22:47;;;;;;;2.30;1.40;;;;;;;;;;5283962;28;20084;-82
2022/11/17 03:25:20;;;;;;;3.35;1.20;;;;;;;;;;5282508;28;20029;-84
2022/11/17 03:27:57;;;;;;;1.45;1.00;;;;;;;;;;5268126;28;20479;-83
2022/11/17 03:30:29;;;;;;;2.35;1.00;;;;;;;;;;5270164;28;20083;-82
2022/11/17 03:33:04;;;;;;;2.42;1.02;;;;;;;;;;5282610;28;20421;-83
2022/11/17 03:35:37;;;;;;;4.28;0.80;;;;;;;;;;5271345;28;20033;-82
2022/11/17 03:38:11;;;;;;;4.32;0.90;;;;;;;;;;5278216;28;20452;-81
2022/11/17 03:40:44;;;;;;;3.55;1.00;;;;;;;;;;5283408;28;20029;-81
2022/11/17 03:43:17;;;;;;;3.38;1.10;;;;;;;;;;5268266;28;20572;-81
2022/11/17 03:45:49;;;;;;;4.43;1.05;;;;;;;;;;5279357;28;20036;-81
2022/11/17 03:48:27;;;;;;;3.00;0.95;;;;;;;;;;5258851;28;20409;-81
2022/11/17 03:51:10;;;;;;;4.28;1.42;;;;;;;;;;5256473;28;20116;-82
2022/11/17 03:53:41;;;;;;;4.20;1.30;;;;;;;;;;5273183;28;20409;-81
2022/11/17 03:56:21;;;;;;;3.10;0.90;;;;;;;;;;5257527;28;20037;-81
2022/11/17 03:59:15;;;;;;;3.67;1.00;;;;;;;;;;5255702;28;20697;-81
2022/11/17 04:01:46;;;;;;;3.92;0.93;;;;;;;;;;5251182;28;20379;-81
2022/11/17 04:04:18;;;;;;;1.23;0.80;;;;;;;;;;5259049;28;20033;-82
2022/11/17 04:06:51;;;;;;;3.85;1.02;;;;;;;;;;5258349;28;20478;-82
2022/11/17 04:09:23;;;;;;;1.90;0.75;;;;;;;;;;5256838;28;20128;-81
2022/11/17 04:17:34;;;;;;;1.58;0.88;;;;;;;;;;5257396;28;20042;-82
2022/11/17 04:20:06;;;;;;;1.07;0.60;;;;;;;;;;5256332;28;20040;-82
2022/11/17 04:22:37;;;;;;;2.90;0.70;;;;;;;;;;5254984;28;20315;-83
2022/11/17 04:25:08;;;;;;;3.83;0.90;;;;;;;;;;5256900;28;20061;-83
2022/11/17 04:30:37;;;;;;;8.48;1.38;;;;;;;;;;5249972;28;20403;-81
2022/11/17 04:33:08;;;;;;;5.05;1.35;;;;;;;;;;5258574;28;20124;-82
2022/11/17 04:35:39;;;;;;;4.83;1.30;;;;;;;;;;5258609;28;20076;-82
2022/11/17 04:38:11;;;;;;;4.57;1.70;;;;;;;;;;5262549;28;20033;-83
2022/11/17 04:41:52;;;;;;;3.38;1.23;;;;;;;;;;5260325;28;20295;-83
2022/11/17 04:43:33;;;;;;;9.70;1.73;;;;;;;;;;5260253;28;20103;-83
2022/11/17 04:46:04;;;;;;;5.87;2.27;;;;;;;;;;5259956;28;20026;-83
2022/11/17 04:48:35;;;;;;;4.13;1.40;;;;;;;;;;5277962;28;20084;-83
2022/11/17 04:51:07;;;;;;;6.70;1.90;;;;;;;;;;5282587;28;20021;-82
2022/11/17 04:53:38;;;;;;;4.82;1.70;;;;;;;;;;5280373;28;20279;-81
2022/11/17 04:56:09;;;;;;;6.17;2.20;;;;;;;;;;5281708;28;20083;-81
2022/11/17 04:58:41;;;;;;;6.55;1.98;;;;;;;;;;5282904;28;20303;-82
2022/11/17 05:01:12;;;;;;;6.10;1.98;;;;;;;;;;5282831;28;20028;-82
2022/11/17 05:03:45;;;;;;;5.10;1.88;;;;;;;;;;5281833;28;20367;-81
2022/11/17 05:06:17;;;;;;;6.93;2.08;;;;;;;;;;5281428;28;20028;-82
2022/11/17 05:08:49;;;;;;;9.73;3.08;;;;;;;;;;5279536;28;21644;-82
2022/11/17 05:14:12;;;;;;;6.72;1.95;;;;;;;;;;5281511;28;20049;-82
2022/11/17 05:19:35;;;;;;;6.53;2.05;;;;;;;;;;5290350;28;20037;-82
2022/11/17 05:24:58;;;;;;;7.45;2.42;;;;;;;;;;5233849;28;20041;-81
2022/11/17 05:27:30;;;;;;;8.80;2.57;;;;;;;;;;5284038;28;20025;-81
2022/11/17 05:30:01;;;;;;;7.00;1.80;;;;;;;;;;5281813;28;20661;-82
2022/11/17 05:32:32;;;;;;;7.78;2.20;;;;;;;;;;5280171;28;20063;-82
2022/11/17 05:35:04;;;;;;;8.90;2.20;;;;;;;;;;5280501;28;20041;-82
2022/11/17 05:37:35;;;;;;;8.23;2.45;;;;;;;;;;5278901;28;20276;-82
2022/11/17 05:40:06;;;;;;;7.70;2.30;;;;;;;;;;5281808;28;20029;-82
2022/11/17 05:42:38;;;;;;;13.50;3.00;;;;;;;;;;5265723;28;20268;-81
2022/11/17 05:45:09;;;;;;;11.82;2.60;;;;;;;;;;5280218;28;20060;-82
2022/11/17 05:47:40;;;;;;;12.88;2.65;;;;;;;;;;5268711;28;20045;-82
2022/11/17 05:50:11;;;;;;;14.03;3.07;;;;;;;;;;5283494;28;20064;-81
2022/11/17 05:52:42;;;;;;;14.30;3.20;;;;;;;;;;5279733;28;20758;-82
2022/11/17 05:55:14;;;;;;;11.40;2.93;;;;;;;;;;5265809;28;20116;-83
2022/11/17 05:57:45;;;;;;;9.57;3.00;;;;;;;;;;5279699;28;20040;-82
2022/11/17 06:00:17;;;;;;;12.68;2.67;;;;;;;;;;5278312;28;20350;-82
2022/11/17 06:02:50;;;;;;;12.38;2.63;;;;;;;;;;5277265;28;20049;-82
2022/11/17 06:05:24;;;;;;;11.18;2.45;;;;;;;;;;5280212;28;20029;-82
2022/11/17 06:07:58;;;;;;;9.75;2.33;;;;;;;;;;5279079;28;20111;-82
2022/11/17 06:10:32;;;;;;;14.43;2.97;;;;;;;;;;5278973;28;20052;-82
2022/11/17 06:13:03;;;;;;;12.43;2.53;;;;;;;;;;5278401;28;20110;-82
2022/11/17 06:15:34;;;;;;;13.80;3.83;;;;;;;;;;5279820;28;20124;-81
2022/11/17 06:18:11;;;;;;;12.95;2.40;;;;;;;;;;5278220;28;20040;-81
2022/11/17 06:20:45;;;;;;;12.32;4.10;;;;;;;;;;5264077;28;20079;-81
2022/11/17 06:23:17;;;;;;;10.80;2.70;;;;;;;;;;5280171;28;20048;-81
2022/11/17 06:25:48;;;;;;;9.73;2.30;;;;;;;;;;5269150;28;20083;-81
2022/11/17 06:28:20;;;;;;;9.50;2.53;;;;;;;;;;5281872;28;20063;-82
2022/11/17 06:30:53;;;;;;;10.15;2.20;;;;;;;;;;5266234;28;20453;-81
2022/11/17 06:33:25;;;;;;;8.05;1.60;;;;;;;;;;5282892;28;20029;-81
2022/11/17 06:35:58;;;;;;;8.13;1.88;;;;;;;;;;5284364;28;20021;-81
2022/11/17 06:38:30;;;;;;;8.77;1.60;;;;;;;;;;5265579;28;20092;-81
2022/11/17 06:41:02;;;;;;;7.60;1.70;;;;;;;;;;5278804;28;20541;-81
2022/11/17 06:43:33;;;;;;;10.07;1.50;;;;;;;;;;5271993;28;20108;-82
2022/11/17 06:46:04;;;;;;;8.13;2.15;;;;;;;;;;5280546;28;20984;-81
2022/11/17 06:48:35;;;;;;;7.65;1.95;;;;;;;;;;5279400;28;20091;-82
2022/11/17 06:51:07;;;;;;;7.00;1.43;;;;;;;;;;5274959;28;20036;-82
2022/11/17 06:53:38;;;;;;;12.23;1.50;;;;;;;;;;5281968;28;20037;-82
2022/11/17 06:56:10;;;;;;;7.78;1.77;;;;;;;;;;5262472;28;20311;-83
2022/11/17 06:58:41;;;;;;;10.70;1.77;;;;;;;;;;5270364;28;20037;-82
2022/11/17 07:01:13;;;;;;;7.33;1.50;;;;;;;;;;5269802;28;20025;-81
2022/11/17 07:03:44;;;;;;;8.00;1.60;;;;;;;;;;5288444;28;20488;-81
2022/11/17 07:06:17;;;;;;;9.98;1.75;;;;;;;;;;5265754;28;20025;-82
2022/11/17 07:08:49;;;;;;;7.88;1.80;;;;;;;;;;5278834;28;20412;-82
2022/11/17 07:11:20;;;;;;;7.85;1.80;;;;;;;;;;5274943;28;20055;-82
2022/11/17 07:13:52;;;;;;;4.10;1.57;;;;;;;;;;5277676;28;20108;-82
2022/11/17 07:16:23;;;;;;;10.37;1.60;;;;;;;;;;5279292;28;20732;-82
2022/11/17 07:18:54;;;;;;;7.30;2.00;;;;;;;;;;5275752;28;20374;-81
2022/11/17 07:21:25;;;;;;;6.85;1.50;;;;;;;;;;5264664;28;20032;-82
2022/11/17 07:23:57;;;;;;;6.72;1.83;;;;;;;;;;5250616;28;20087;-81
2022/11/17 07:26:28;;;;;;;5.00;1.40;;;;;;;;;;5280827;28;20234;-82
2022/11/17 07:28:59;;;;;;;5.10;1.50;;;;;;;;;;5282250;28;20079;-81
2022/11/17 07:31:30;;;;;;;4.93;1.37;;;;;;;;;;5290655;28;20378;-82
2022/11/17 07:34:01;;;;;;;7.13;2.07;;;;;;;;;;5280706;28;20342;-82
2022/11/17 07:36:33;;;;;;;5.95;1.15;;;;;;;;;;5244865;28;20264;-81
2022/11/17 07:39:04;;;;;;;6.35;1.45;;;;;;;;;;5244650;28;20025;-81
2022/11/17 07:41:35;;;;;;;7.57;1.40;;;;;;;;;;5243315;28;20491;-81
2022/11/17 07:44:07;;;;;;;6.35;1.45;;;;;;;;;;5269812;28;20052;-81
2022/11/17 07:46:38;;;;;;;4.55;1.38;;;;;;;;;;5283419;28;20035;-80
2022/11/17 07:49:09;;;;;;;4.63;1.20;;;;;;;;;;5281919;28;20037;-81
2022/11/17 07:51:40;;;;;;;5.13;1.23;;;;;;;;;;5252989;28;20760;-81
2022/11/17 07:54:11;;;;;;;3.83;1.17;;;;;;;;;;5262080;28;20068;-81
2022/11/17 07:56:43;;;;;;;3.63;1.10;;;;;;;;;;5262249;28;20693;-82
2022/11/17 07:59:14;;;;;;;2.65;1.00;;;;;;;;;;5244775;28;20298;-82
2022/11/17 08:01:46;;;;;;;3.28;1.00;;;;;;;;;;5282206;28;20025;-83
2022/11/17 08:04:17;;;;;;;5.13;1.35;;;;;;;;;;5267104;28;20037;-81
2022/11/17 08:06:48;;;;;;;5.20;1.50;;;;;;;;;;5270835;28;20020;-81
2022/11/17 08:09:19;;;;;;;4.33;1.20;;;;;;;;;;5287178;28;20037;-81
2022/11/17 08:11:50;;;;;;;6.53;1.20;;;;;;;;;;5292214;28;20270;-80
2022/11/17 08:14:22;;;;;;;3.38;1.10;;;;;;;;;;5269950;28;20354;-83
2022/11/17 08:16:53;;;;;;;5.83;1.63;;;;;;;;;;5286811;28;20017;-82
2022/11/17 08:19:25;;;;;;;2.60;1.25;;;;;;;;;;5259777;28;20268;-82
2022/11/17 08:21:56;;;;;;;4.22;1.23;;;;;;;;;;5284958;28;20155;-83
2022/11/17 08:24:27;;;;;;;6.88;1.40;;;;;;;;;;5269317;28;20025;-84
2022/11/17 08:26:59;;;;;;;4.90;1.60;;;;;;;;;;5288073;28;20021;-84
2022/11/17 08:29:30;;;;;;;8.10;1.27;;;;;;;;;;5269534;28;20099;-84
2022/11/17 08:32:01;;;;;;;5.68;1.10;;;;;;;;;;5287504;28;20017;-84
2022/11/17 08:34:33;;;;;;;5.55;1.42;;;;;;;;;;5268661;28;20025;-82
2022/11/17 08:37:06;;;;;;;3.38;1.17;;;;;;;;;;5269639;28;20017;-85
2022/11/17 08:39:38;;;;;;;5.78;1.27;;;;;;;;;;5286761;28;20060;-84
2022/11/17 08:42:09;;;;;;;5.13;1.83;;;;;;;;;;5287955;28;20138;-82
2022/11/17 08:44:40;;;;;;;5.05;1.80;;;;;;;;;;5287177;28;20466;-82
2022/11/17 08:47:12;;;;;;;7.20;1.58;;;;;;;;;;5268807;28;20040;-83
2022/11/17 08:49:43;;;;;;;3.42;1.20;;;;;;;;;;5285642;28;20171;-84
2022/11/17 08:52:14;;;;;;;4.15;1.00;;;;;;;;;;5269433;28;20086;-82
2022/11/17 08:54:46;;;;;;;4.20;1.42;;;;;;;;;;5278979;28;20025;-83
2022/11/17 08:57:17;;;;;;;4.05;1.25;;;;;;;;;;5269123;28;20066;-82
2022/11/17 08:59:49;;;;;;;8.18;1.95;;;;;;;;;;5268658;28;20051;-79
2022/11/17 09:02:20;;;;;;;5.47;1.75;;;;;;;;;;5286789;28;20021;-81
2022/11/17 09:04:51;;;;;;;5.40;1.80;;;;;;;;;;5286073;28;20024;-81
2022/11/17 09:07:23;;;;;;;6.38;1.63;;;;;;;;;;5286216;28;20032;-82
2022/11/17 09:09:57;;;;;;;3.65;1.25;;;;;;;;;;5287411;28;20428;-85
2022/11/17 09:12:30;;;;;;;4.72;1.58;;;;;;;;;;5264552;28;20060;-83
2022/11/17 09:15:03;;;;;;;9.25;1.48;;;;;;;;;;5249740;28;20049;-81
2022/11/17 09:17:34;;;;;;;4.00;1.13;;;;;;;;;;5267916;28;20036;-82
2022/11/17 09:20:06;;;;;;;4.05;1.15;;;;;;;;;;5286089;28;20025;-83
2022/11/17 09:22:37;;;;;;;6.72;1.52;;;;;;;;;;5285224;28;20442;-83
2022/11/17 09:25:08;;;;;;;5.70;1.48;;;;;;;;;;5268240;28;20074;-83
2022/11/17 09:27:40;;;;;;;4.55;1.30;;;;;;;;;;5268524;28;20025;-82
2022/11/17 09:30:11;;;;;;;4.60;1.38;;;;;;;;;;5268531;28;20083;-81
2022/11/17 09:32:42;;;;;;;5.40;1.50;;;;;;;;;;5265529;28;20037;-80
2022/11/17 09:35:14;;;;;;;5.00;1.00;;;;;;;;;;5266065;28;20079;-81
2022/11/17 09:37:51;;;;;;;4.18;1.17;;;;;;;;;;5284627;28;20225;-82
2022/11/17 09:40:25;;;;;;;5.72;2.20;;;;;;;;;;5272419;28;20131;-82
2022/11/17 09:43:00;;;;;;;4.68;1.20;;;;;;;;;;5287027;28;20021;-84
2022/11/17 09:45:35;;;;;;;6.03;1.20;;;;;;;;;;5273633;28;20048;-84
2022/11/17 09:48:27;;;;;;;4.87;1.50;;;;;;;;;;5267461;28;20169;-86
2022/11/17 09:51:09;;;;;;;6.35;1.58;;;;;;;;;;5249102;28;20037;-84
2022/11/17 09:53:53;;;;;;;3.88;0.95;;;;;;;;;;5267368;28;20120;-82
2022/11/17 09:56:25;;;;;;;5.82;1.30;;;;;;;;;;5286092;28;20025;-84
2022/11/17 09:59:04;;;;;;;7.45;1.52;;;;;;;;;;5268522;28;20063;-82
2022/11/17 10:01:36;;;;;;;15.68;1.63;;;;;;;;;;5267821;28;20762;-83
2022/11/17 10:04:27;;;;;;;5.97;1.25;;;;;;;;;;5290656;28;20079;-88
2022/11/17 10:07:05;;;;;;;4.63;1.30;;;;;;;;;;5287073;28;20041;-89
2022/11/17 10:10:05;;;;;;;8.82;1.67;;;;;;;;;;5273554;28;20370;-88
2022/11/17 10:12:52;;;;;;;5.40;1.15;;;;;;;;;;5273482;28;20041;-87
2022/11/17 10:15:51;;;;;;;;;;;;;;;;;;;;;
2022/11/17 10:18:34;;;;;;;4.95;1.10;;;;;;;;;;5284538;28;42167;-87
2022/11/17 10:21:10;;;;;;;7.45;1.58;;;;;;;;;;5273487;28;20021;-87
2022/11/17 10:23:53;;;;;;;4.93;1.10;;;;;;;;;;5273291;28;20037;-87
2022/11/17 10:26:27;;;;;;;4.80;0.95;;;;;;;;;;5275405;28;20035;-87
2022/11/17 10:29:16;;;;;;;5.05;1.50;;;;;;;;;;5272870;28;20053;-87
2022/11/17 10:32:16;;;;;;;3.85;1.20;;;;;;;;;;5277261;28;20025;-89
2022/11/17 10:34:48;;;;;;;1.70;0.60;;;;;;;;;;5273627;28;20099;-89
2022/11/17 10:37:21;;;;;;;4.53;1.10;;;;;;;;;;5275126;28;20025;-89
2022/11/17 10:43:17;;;;;;;3.42;0.77;;;;;;;;;;5276591;28;20055;-89
2022/11/17 10:45:53;;;;;;;4.65;1.10;;;;;;;;;;5291581;28;20047;-88
2022/11/17 10:48:35;;;;;;;3.53;1.30;;;;;;;;;;5293241;27;20033;-87
2022/11/17 10:51:28;;;;;;;4.28;1.25;;;;;;;;;;5289044;27;20100;-87
2022/11/17 10:54:04;;;;;;;4.05;1.20;;;;;;;;;;5308414;27;20053;-87
2022/11/17 10:59:52;;;;;;;4.82;1.08;;;;;;;;;;5284469;28;20094;-87
2022/11/17 11:02:29;;;;;;;4.13;0.98;;;;;;;;;;5288199;28;20120;-87
2022/11/17 11:05:11;;;;;;;4.40;1.00;;;;;;;;;;5259264;28;20025;-87
2022/11/17 11:07:45;;;;;;;5.38;1.30;;;;;;;;;;5251557;28;20029;-86
2022/11/17 11:10:29;;;;;;;4.57;1.15;;;;;;;;;;5267762;28;20026;-87
2022/11/17 11:13:26;;;;;;;3.75;0.90;;;;;;;;;;5247100;28;20382;-87
2022/11/17 11:15:58;;;;;;;;;;;;;;;;;;5262762;28;20037;-87
2022/11/17 11:18:29;;;;;;;3.95;1.00;;;;;;;;;;5263872;28;19908;-88
2022/11/17 11:21:06;;;;;;;4.95;1.13;;;;;;;;;;5264095;28;20025;-88
2022/11/17 11:23:37;;;;;;;;;;;;;;;;;;5265429;28;20473;-87
2022/11/17 11:26:41;;;;;;;3.73;1.20;;;;;;;;;;5264783;28;20012;-88
2022/11/17 11:29:30;;;;;;;4.68;0.93;;;;;;;;;;5165323;28;20418;-87
2022/11/17 11:32:04;;;;;;;5.80;1.55;;;;;;;;;;5217994;28;20539;-87
2022/11/17 11:34:38;;;;;;;3.75;1.30;;;;;;;;;;5285938;28;20033;-87
2022/11/17 11:37:11;;;;;;;4.95;1.40;;;;;;;;;;5266241;28;20040;-88
2022/11/17 11:39:47;;;;;;;3.25;1.17;;;;;;;;;;5287436;28;20044;-87
2022/11/17 11:42:18;;;;;;;7.70;1.95;;;;;;;;;;5285544;28;20032;-87
2022/11/17 11:44:56;;;;;;;4.22;1.75;;;;;;;;;;5264746;28;20045;-86
2022/11/17 11:47:37;;;;;;;5.07;2.20;;;;;;;;;;5285153;28;20045;-87
2022/11/17 11:50:23;;;;;;;4.75;1.92;;;;;;;;;;5249857;28;20057;-87
2022/11/17 11:53:15;;;;;;;5.47;1.70;;;;;;;;;;5265834;28;20123;-87
2022/11/17 11:55:48;;;;;;;4.15;1.23;;;;;;;;;;5282501;28;20029;-87
2022/11/17 11:58:20;;;;;;;3.03;1.10;;;;;;;;;;5266851;28;20029;-88
2022/11/17 12:00:57;;;;;;;4.07;1.08;;;;;;;;;;5267904;28;20120;-87
2022/11/17 12:03:40;;;;;;;5.95;0.82;;;;;;;;;;5267026;28;20174;-86
2022/11/17 12:06:39;;;;;;;3.15;0.90;;;;;;;;;;5292093;28;20021;-86
2022/11/17 12:09:19;;;;;;;5.70;1.10;;;;;;;;;;5273189;28;20025;-87
2022/11/17 12:12:03;;;;;;;3.20;0.98;;;;;;;;;;5267355;28;20077;-87
2022/11/17 12:14:36;;;;;;;5.18;1.00;;;;;;;;;;5268977;28;20201;-87
2022/11/17 12:17:24;;;;;;;6.65;1.13;;;;;;;;;;5287089;28;20115;-87
2022/11/17 12:20:01;;;;;;;5.13;1.13;;;;;;;;;;5267180;28;20461;-87
2022/11/17 12:22:32;;;;;;;3.60;1.02;;;;;;;;;;5265061;28;20052;-87
2022/11/17 12:25:25;;;;;;;2.05;1.00;;;;;;;;;;5283087;28;20478;-86
2022/11/17 12:27:57;;;;;;;3.25;0.90;;;;;;;;;;5284959;28;20427;-87
2022/11/17 12:30:37;;;;;;;2.33;0.97;;;;;;;;;;5280902;28;20052;-87
2022/11/17 12:33:11;;;;;;;4.10;0.98;;;;;;;;;;5263946;28;20286;-87
2022/11/17 12:35:43;;;;;;;3.92;1.00;;;;;;;;;;5266677;28;20502;-88
2022/11/17 12:38:17;;;;;;;5.07;0.80;;;;;;;;;;5266137;28;20037;-87
2022/11/17 12:40:52;;;;;;;3.20;1.33;;;;;;;;;;5262653;28;20533;-86
2022/11/17 12:43:25;;;;;;;4.07;0.82;;;;;;;;;;5258185;28;20486;-87
2022/11/17 12:45:59;;;;;;;5.07;1.20;;;;;;;;;;5270592;28;20098;-87
2022/11/17 12:48:32;;;;;;;7.88;0.90;;;;;;;;;;5260066;28;20045;-87
2022/11/17 12:51:22;;;;;;;4.10;1.33;;;;;;;;;;5279255;28;20110;-87
2022/11/17 12:54:01;;;;;;;1.85;0.80;;;;;;;;;;5262058;28;20037;-87
2022/11/17 12:56:51;;;;;;;3.60;1.13;;;;;;;;;;5263673;28;20116;-87
2022/11/17 12:59:37;;;;;;;4.63;1.15;;;;;;;;;;5261340;28;20045;-86
2022/11/17 13:02:25;;;;;;;5.20;1.38;;;;;;;;;;5260178;28;20022;-86
2022/11/17 13:05:00;;;;;;;4.18;1.10;;;;;;;;;;5260703;28;20501;-87
2022/11/17 13:07:31;;;;;;;7.85;1.58;;;;;;;;;;5257330;28;20482;-87
2022/11/17 13:10:03;;;;;;;6.63;1.90;;;;;;;;;;5281440;28;20040;-84
2022/11/17 13:12:34;;;;;;;5.05;1.00;;;;;;;;;;5263759;28;20292;-84
2022/11/17 13:15:06;;;;;;;7.38;1.25;;;;;;;;;;5263767;28;20022;-83
2022/11/17 13:17:41;;;;;;;6.18;1.33;;;;;;;;;;5262957;28;20033;-84
2022/11/17 13:20:15;;;;;;;3.97;0.90;;;;;;;;;;5263774;28;20593;-85
2022/11/17 13:23:00;;;;;;;7.45;1.90;;;;;;;;;;5279569;28;20091;-84
2022/11/17 13:25:32;;;;;;;3.10;0.70;;;;;;;;;;5263040;28;20029;-84
2022/11/17 13:28:04;;;;;;;3.08;0.93;;;;;;;;;;5259332;28;20133;-84
2022/11/17 13:30:36;;;;;;;4.18;0.70;;;;;;;;;;5244532;28;20608;-81
2022/11/17 13:33:09;;;;;;;1.90;0.80;;;;;;;;;;5270396;28;20117;-84
2022/11/17 13:35:40;;;;;;;3.42;0.95;;;;;;;;;;5268798;28;20146;-84
2022/11/17 13:38:12;;;;;;;3.00;0.70;;;;;;;;;;5269184;28;20033;-84
2022/11/17 13:40:44;;;;;;;3.92;0.70;;;;;;;;;;5271328;28;20545;-84
2022/11/17 13:43:18;;;;;;;3.17;0.98;;;;;;;;;;5264734;28;20065;-85
2022/11/17 13:45:50;;;;;;;3.15;1.00;;;;;;;;;;5262704;28;20018;-84
2022/11/17 13:48:33;;;;;;;4.25;1.40;;;;;;;;;;5262017;28;20076;-83
2022/11/17 13:51:20;;;;;;;4.25;2.03;;;;;;;;;;5264065;28;20494;-85
2022/11/17 13:54:14;;;;;;;1.75;0.80;;;;;;;;;;5263452;28;20034;-85
2022/11/17 13:56:48;;;;;;;1.65;0.77;;;;;;;;;;5252672;28;20087;-84
2022/11/17 13:59:49;;;;;;;3.70;1.20;;;;;;;;;;5261932;28;20040;-85
2022/11/17 14:02:22;;;;;;;3.03;2.13;;;;;;;;;;5255645;28;20041;-83
2022/11/17 14:05:18;;;;;;;2.17;1.00;;;;;;;;;;5263004;28;20033;-83
2022/11/17 14:07:50;;;;;;;3.85;1.80;;;;;;;;;;5240810;28;20120;-83
2022/11/17 14:10:26;;;;;;;1.42;0.73;;;;;;;;;;5273072;28;20060;-83
2022/11/17 14:13:09;;;;;;;3.55;0.73;;;;;;;;;;5261685;28;20108;-83
2022/11/17 14:15:49;;;;;;;2.38;0.60;;;;;;;;;;5262300;28;20041;-83
2022/11/17 14:18:50;;;;;;;3.33;0.70;;;;;;;;;;5284304;28;20393;-83
2022/11/17 14:21:21;;;;;;;4.53;0.88;;;;;;;;;;5260737;28;20076;-84
2022/11/17 14:24:28;;;;;;;2.40;0.60;;;;;;;;;;5259406;28;20386;-84
2022/11/17 14:27:00;;;;;;;2.47;0.80;;;;;;;;;;5256197;28;20049;-83
2022/11/17 14:29:39;;;;;;;2.25;0.60;;;;;;;;;;5244386;28;20501;-84
2022/11/17 14:32:18;;;;;;;0.88;0.50;;;;;;;;;;5251473;28;20041;-83
2022/11/17 14:34:52;;;;;;;4.15;0.50;;;;;;;;;;5275356;28;20029;-83
2022/11/17 14:37:34;;;;;;;2.40;0.50;;;;;;;;;;5262422;28;20048;-83
2022/11/17 14:40:08;;;;;;;2.33;0.70;;;;;;;;;;5278380;28;20040;-84
2022/11/17 14:42:54;;;;;;;3.67;1.23;;;;;;;;;;5284429;28;20029;-83
2022/11/17 14:45:35;;;;;;;3.15;0.88;;;;;;;;;;5260675;28;20057;-84
2022/11/17 14:48:11;;;;;;;2.10;0.70;;;;;;;;;;5277806;28;20379;-84
2022/11/17 14:50:47;;;;;;;2.40;0.57;;;;;;;;;;5261712;28;20394;-84
2022/11/17 14:53:18;;;;;;;3.50;0.75;;;;;;;;;;5276449;28;20180;-84
2022/11/17 14:55:53;;;;;;;3.15;0.75;;;;;;;;;;5278520;28;20124;-83
2022/11/17 14:58:28;;;;;;;2.53;0.70;;;;;;;;;;5259588;28;20026;-84
2022/11/17 15:01:14;;;;;;;2.08;0.80;;;;;;;;;;5277303;28;20037;-83
2022/11/17 15:03:45;;;;;;;1.98;0.77;;;;;;;;;;5258316;28;20500;-84
2022/11/17 15:06:16;;;;;;;2.70;0.73;;;;;;;;;;5259053;28;20065;-84
2022/11/17 15:08:58;;;;;;;2.05;0.75;;;;;;;;;;5260587;28;20056;-84
2022/11/17 15:11:44;;;;;;;4.28;0.80;;;;;;;;;;5260762;28;20041;-84
2022/11/17 15:14:18;;;;;;;3.67;1.20;;;;;;;;;;5259059;28;20087;-83
2022/11/17 15:16:52;;;;;;;1.80;0.90;;;;;;;;;;5259213;28;20052;-83
2022/11/17 15:19:41;;;;;;;5.18;0.90;;;;;;;;;;5248427;28;20038;-83
2022/11/17 15:22:24;;;;;;;2.83;0.88;;;;;;;;;;5268736;28;20065;-83
2022/11/17 15:25:06;;;;;;;1.77;0.70;;;;;;;;;;5264119;28;20033;-84
2022/11/17 15:30:35;;;;;;;4.32;0.80;;;;;;;;;;5268067;28;20053;-84
2022/11/17 15:33:14;;;;;;;3.42;0.80;;;;;;;;;;5267066;28;20031;-84
2022/11/17 15:35:58;;;;;;;3.08;0.70;;;;;;;;;;5286418;28;20049;-83
2022/11/17 15:38:43;;;;;;;2.80;0.60;;;;;;;;;;5281557;28;20026;-84
2022/11/17 15:41:39;;;;;;;2.88;0.98;;;;;;;;;;5261105;28;20083;-84
2022/11/17 15:44:19;;;;;;;1.92;0.82;;;;;;;;;;5259777;28;20032;-84
2022/11/17 15:46:51;;;;;;;3.13;0.95;;;;;;;;;;5262879;28;20037;-83
2022/11/17 15:49:29;;;;;;;3.70;1.15;;;;;;;;;;5269118;28;20502;-85
2022/11/17 15:52:01;;;;;;;3.33;1.27;;;;;;;;;;5264397;28;20033;-84
2022/11/17 15:54:37;;;;;;;1.52;0.80;;;;;;;;;;5281286;28;20035;-85
2022/11/17 15:57:18;;;;;;;3.85;0.90;;;;;;;;;;5261934;28;20028;-84
2022/11/17 15:59:59;;;;;;;1.40;0.60;;;;;;;;;;5264092;28;20114;-85
2022/11/17 16:02:31;;;;;;;6.75;0.80;;;;;;;;;;5264438;28;20041;-84
2022/11/17 16:05:06;;;;;;;4.03;1.00;;;;;;;;;;5259458;28;20049;-84
2022/11/17 16:07:45;;;;;;;2.85;0.90;;;;;;;;;;5262518;28;20013;-84
2022/11/17 16:10:32;;;;;;;2.72;0.80;;;;;;;;;;5244128;28;20041;-85